CheckWX is a tool to help pilots better visualize weather data.  It is not intended as a substitute for an official pre-flight weather briefing.

02:07:53 UTC

KDUJ METAR
Dubois Regional Airport
Dubois, Pennsylvania, USA
Current

15 mins ago

KDUJ 180153Z AUTO 13011G20KT 4SM BR OVC010 M03/M06 A2972 RMK AO2 UPB08E23FZRAB23E33 SLP086 P0000 I1001 T10331056
Observed
Feb-18 @ 01:53 UTC
Wind
  • 130° at 11 KTS
  • Gusting to 20 KTS
Visibility
4 SM
Flight Rules
MVFR
Conditions
Mist
Cloud Levels
  • Overcast at 1,000' AGL
Temperature
-3°C / 27°F
Dewpoint
-6°C / 21°F
Humidity
80%
Altimeter
29.72" Hg
Pressure
1008.6 hPa
Current Rain
0.01"
Previous

29 mins ago

KDUJ 180139Z AUTO 11011KT 4SM BR OVC012 M03/M06 A2971 RMK AO2 UPB08E23FZRAB23E33 P0000 I1000 T10331056
Observed
Feb-18 @ 01:39 UTC
Wind
  • 110° at 11 KTS
Visibility
4 SM
Flight Rules
MVFR
Conditions
Mist
Cloud Levels
  • Overcast at 1,200' AGL
Temperature
-3°C / 27°F
Dewpoint
-6°C / 21°F
Humidity
80%
Altimeter
29.71" Hg
Pressure
1006.12 hPa
Current Rain
0.01"
Previous

1 hour ago

KDUJ 180053Z AUTO 11008KT BKN011 OVC017 M03/M06 A2974 RMK AO2 UPB11E14B31E35FZRAB35E45SNE11B14E25 SLP094 P0003 I1001 T10331056 $
Observed
Feb-18 @ 00:53 UTC
Wind
  • 110° at 8 KTS
Visibility
Cloud Levels
  • Broken at 1,100' AGL
  • Overcast at 1,700' AGL
Temperature
-3°C / 27°F
Dewpoint
-6°C / 21°F
Humidity
80%
Altimeter
29.74" Hg
Pressure
1009.4 hPa
Current Rain
0.03"